Time;durP1;ratioP1;P1;durP2;ratioP2;P2;SDS_P1;SDS_P2;PMS_P1;PMS_P2;Temp;Humidity;BMP_temperature;BMP_pressure;BME280_temperature;BME280_humidity;BME280_pressure;Samples;Min_cycle;Max_cycle;Signal;HPM_P1;HPM_P2
2022/05/19 00:02:16;;;;;;;;;5.25;3.75;;;;;30.82;100.00;101044.34;5042321;28;51051;-47
2022/05/19 00:05:01;;;;;;;;;10.50;4.00;;;;;30.80;100.00;101044.50;5043038;28;51186;-48
2022/05/19 00:07:46;;;;;;;;;7.75;4.00;;;;;30.83;100.00;101051.59;5042137;28;51362;-48
2022/05/19 00:10:30;;;;;;;;;6.75;4.00;;;;;30.82;100.00;101048.00;5043142;28;51089;-51
2022/05/19 00:13:14;;;;;;;;;7.75;5.00;;;;;30.82;100.00;101042.50;5042818;28;51471;-51
2022/05/19 00:15:59;;;;;;;;;6.25;5.00;;;;;30.82;100.00;101047.09;5041844;28;51153;-48
2022/05/19 00:18:44;;;;;;;;;9.25;3.50;;;;;30.82;100.00;101038.88;5042732;28;51180;-51
2022/05/19 00:21:28;;;;;;;;;7.00;4.25;;;;;30.80;100.00;101043.59;5041605;28;51477;-51
2022/05/19 00:24:12;;;;;;;;;5.50;4.50;;;;;30.80;100.00;101032.63;5042878;28;51441;-50
2022/05/19 00:26:58;;;;;;;;;14.00;5.00;;;;;30.80;100.00;101035.38;5036977;28;51120;-49
2022/05/19 00:29:42;;;;;;;;;11.00;4.25;;;;;30.76;100.00;101030.16;5042844;28;51007;-49
2022/05/19 00:32:27;;;;;;;;;8.50;3.50;;;;;30.77;100.00;101022.78;5042526;28;51115;-53
2022/05/19 00:35:11;;;;;;;;;9.00;5.00;;;;;30.75;100.00;101013.78;5042294;28;51188;-50
2022/05/19 00:37:56;;;;;;;;;12.00;4.75;;;;;30.79;100.00;101015.28;5046510;28;51254;-48
2022/05/19 00:40:48;;;;;;;;;9.50;3.50;;;;;30.79;100.00;101017.16;5042149;28;51148;-50
2022/05/19 00:43:40;;;;;;;;;8.75;5.00;;;;;30.78;100.00;101020.91;5042434;28;51096;-50
2022/05/19 00:46:37;;;;;;;;;5.75;3.50;;;;;30.77;100.00;101009.03;5041889;28;51184;-51
2022/05/19 00:49:28;;;;;;;;;5.75;3.75;;;;;30.75;100.00;100995.44;5040735;28;51587;-48
2022/05/19 00:52:23;;;;;;;;;6.50;2.25;;;;;30.79;100.00;100987.81;5042064;28;51302;-50
2022/05/19 00:55:13;;;;;;;;;8.00;5.00;;;;;30.81;100.00;100987.66;5042775;28;51071;-48
2022/05/19 00:58:03;;;;;;;;;11.75;4.00;;;;;30.76;100.00;100980.72;5039648;28;51469;-50
2022/05/19 01:00:47;;;;;;;;;6.50;3.75;;;;;30.79;100.00;100978.72;5041143;28;51142;-49
2022/05/19 01:03:42;;;;;;;;;4.50;1.00;;;;;30.69;100.00;100962.13;5040893;28;51186;-51
2022/05/19 01:06:28;;;;;;;;;4.00;4.00;;;;;30.70;100.00;100963.88;5026456;28;51146;-49
2022/05/19 01:09:15;;;;;;;;;5.00;3.50;;;;;30.72;100.00;100970.13;5041202;28;51195;-49
2022/05/19 01:11:59;;;;;;;;;5.25;3.50;;;;;30.68;100.00;100961.28;5041851;28;51143;-51
2022/05/19 01:14:44;;;;;;;;;4.50;3.75;;;;;30.67;100.00;100958.66;5041837;28;51053;-47
2022/05/19 01:17:29;;;;;;;;;8.00;3.75;;;;;30.66;100.00;100954.16;5041356;28;51095;-47
2022/05/19 01:20:25;;;;;;;;;6.75;4.50;;;;;30.62;100.00;100942.56;5041855;28;51132;-49
2022/05/19 01:23:47;;;;;;;;;7.00;4.00;;;;;30.63;100.00;100940.72;5040418;28;51295;-50
2022/05/19 01:26:50;;;;;;;;;8.50;4.00;;;;;30.60;100.00;100939.06;5041379;28;51178;-51
2022/05/19 01:29:35;;;;;;;;;5.75;4.00;;;;;30.53;100.00;100922.25;5039837;28;51181;-48
2022/05/19 01:32:26;;;;;;;;;5.00;4.75;;;;;30.54;100.00;100939.63;5041407;28;51107;-49
2022/05/19 01:35:11;;;;;;;;;9.50;5.00;;;;;30.54;100.00;100931.38;5040859;28;51135;-48
2022/05/19 01:37:55;;;;;;;;;5.75;4.50;;;;;30.54;100.00;100923.13;5039595;28;51168;-49
2022/05/19 01:41:04;;;;;;;;;7.50;5.25;;;;;30.53;100.00;100919.50;5041089;28;51493;-52
2022/05/19 01:43:58;;;;;;;;;6.75;4.75;;;;;30.52;100.00;100928.75;5040869;28;51081;-51
2022/05/19 01:46:45;;;;;;;;;7.25;3.25;;;;;30.50;100.00;100930.75;5042471;28;51236;-49
2022/05/19 01:50:03;;;;;;;;;7.75;5.00;;;;;30.52;100.00;100933.34;5039311;28;51353;-47
2022/05/19 01:53:15;;;;;;;;;7.25;6.50;;;;;30.51;100.00;100943.47;5040594;28;51249;-50
2022/05/19 01:56:16;;;;;;;;;7.50;5.75;;;;;30.48;100.00;100943.72;5041707;28;51251;-52
2022/05/19 01:59:40;;;;;;;;;7.25;5.50;;;;;30.53;100.00;100955.19;5040935;28;51086;-49
2022/05/19 02:02:35;;;;;;;;;5.00;3.00;;;;;30.53;100.00;100951.59;4985098;28;51208;-46
2022/05/19 02:05:44;;;;;;;;;6.75;2.75;;;;;30.52;100.00;100944.31;5047506;28;51071;-51
2022/05/19 02:08:53;;;;;;;;;2.25;2.25;;;;;30.49;100.00;100945.47;5040798;28;51157;-50
2022/05/19 02:11:45;;;;;;;;;5.00;3.25;;;;;30.50;100.00;100941.72;5040169;28;51185;-52
2022/05/19 02:14:45;;;;;;;;;3.00;3.00;;;;;30.45;100.00;100933.88;5038720;28;51305;-51
2022/05/19 02:17:31;;;;;;;;;7.00;3.75;;;;;30.49;100.00;100942.72;5039408;28;51377;-48
2022/05/19 02:20:18;;;;;;;;;6.50;4.75;;;;;30.44;100.00;100932.13;5040140;28;51110;-48
2022/05/19 02:23:04;;;;;;;;;5.75;5.00;;;;;30.39;100.00;100912.41;5034083;28;51258;-50
2022/05/19 02:25:50;;;;;;;;;4.25;2.50;;;;;30.51;100.00;100932.47;5039435;28;51180;-47
2022/05/19 02:28:42;;;;;;;;;5.50;4.75;;;;;30.50;100.00;100930.75;5040821;28;51084;-49
2022/05/19 02:31:26;;;;;;;;;6.00;3.75;;;;;30.53;100.00;100914.00;5039682;28;51089;-47
2022/05/19 02:34:11;;;;;;;;;7.50;3.75;;;;;30.51;100.00;100910.53;5044843;28;51932;-50
2022/05/19 02:36:55;;;;;;;;;10.25;5.00;;;;;30.54;100.00;100914.91;5039634;28;51135;-50
2022/05/19 02:39:39;;;;;;;;;6.50;4.75;;;;;30.52;100.00;100894.91;5041115;28;51130;-52
2022/05/19 02:42:24;;;;;;;;;3.75;3.75;;;;;30.50;100.00;100884.06;5040124;28;51218;-52
2022/05/19 02:45:10;;;;;;;;;7.75;4.75;;;;;30.49;100.00;100890.56;5040009;28;51119;-48
2022/05/19 02:47:54;;;;;;;;;8.25;5.25;;;;;30.48;100.00;100896.19;5039924;28;51299;-50
2022/05/19 02:50:40;;;;;;;;;7.75;4.75;;;;;30.49;100.00;100904.28;5039689;28;51082;-51
2022/05/19 02:53:24;;;;;;;;;4.50;4.00;;;;;30.49;100.00;100906.13;5040400;28;51248;-48
2022/05/19 02:56:09;;;;;;;;;8.25;6.00;;;;;30.49;100.00;100900.66;5038904;28;51119;-49
2022/05/19 02:58:53;;;;;;;;;9.25;6.00;;;;;30.42;100.00;100892.09;5042847;28;51418;-50
2022/05/19 03:01:38;;;;;;;;;5.25;3.25;;;;;30.48;100.00;100909.91;5043633;28;51208;-49
2022/05/19 03:04:22;;;;;;;;;5.00;3.75;;;;;30.45;100.00;100906.44;5042779;28;51197;-49
2022/05/19 03:07:06;;;;;;;;;8.75;5.25;;;;;30.45;100.00;100906.44;5038322;28;51149;-48
2022/05/19 03:09:51;;;;;;;;;11.75;4.75;;;;;30.44;100.00;100906.53;5039879;28;51171;-49
2022/05/19 03:12:35;;;;;;;;;6.00;4.00;;;;;30.45;100.00;100909.16;5039091;28;51412;-50
2022/05/19 03:15:20;;;;;;;;;9.00;3.75;;;;;30.47;100.00;100909.03;5040586;28;51149;-50
2022/05/19 03:18:05;;;;;;;;;5.75;4.00;;;;;30.47;100.00;100903.53;5039982;28;51145;-50
2022/05/19 03:20:49;;;;;;;;;8.00;5.00;;;;;30.40;100.00;100867.50;5041127;28;51115;-48
2022/05/19 03:23:34;;;;;;;;;6.75;3.75;;;;;30.43;100.00;100870.00;5039575;28;51115;-49
2022/05/19 03:26:18;;;;;;;;;4.50;3.75;;;;;30.43;100.00;100874.59;5039981;28;51296;-50
2022/05/19 03:29:04;;;;;;;;;10.25;3.50;;;;;30.40;100.00;100889.47;5040020;28;51162;-49
2022/05/19 03:31:48;;;;;;;;;8.50;3.00;;;;;30.42;100.00;100901.19;5037717;28;51624;-49
2022/05/19 03:34:33;;;;;;;;;9.00;6.75;;;;;30.42;100.00;100897.59;5043439;28;51170;-50
2022/05/19 03:37:17;;;;;;;;;6.50;5.75;;;;;30.41;100.00;100904.06;5043770;28;51075;-52
2022/05/19 03:40:03;;;;;;;;;7.25;6.00;;;;;30.36;100.00;100879.75;5046320;28;50970;-52
2022/05/19 03:42:48;;;;;;;;;5.25;3.50;;;;;30.38;100.00;100899.69;5043519;28;51455;-49
2022/05/19 03:45:32;;;;;;;;;3.25;2.50;;;;;30.39;100.00;100890.47;5047383;28;51113;-50
2022/05/19 03:48:17;;;;;;;;;7.25;4.00;;;;;30.39;100.00;100900.59;5043720;28;51337;-50
2022/05/19 03:51:03;;;;;;;;;6.00;5.00;;;;;30.39;100.00;100893.19;5041853;28;51188;-48
2022/05/19 03:53:49;;;;;;;;;8.75;5.50;;;;;30.40;100.00;100892.22;5046249;28;51738;-50
2022/05/19 03:56:34;;;;;;;;;6.50;4.50;;;;;30.36;100.00;100882.50;5040615;28;51135;-49
2022/05/19 03:59:19;;;;;;;;;8.25;5.25;;;;;30.39;100.00;100887.72;5043010;28;51038;-48
2022/05/19 04:02:04;;;;;;;;;5.50;5.00;;;;;30.37;100.00;100892.47;5044984;28;51189;-49
2022/05/19 04:04:49;;;;;;;;;4.00;4.00;;;;;30.36;100.00;100884.38;5047285;28;51083;-52
2022/05/19 04:07:33;;;;;;;;;4.25;3.50;;;;;30.30;100.00;100867.44;5041969;28;51580;-49
2022/05/19 04:10:18;;;;;;;;;8.00;4.75;;;;;30.36;100.00;100871.53;5043438;28;51078;-49
2022/05/19 04:13:03;;;;;;;;;6.00;2.50;;;;;30.35;100.00;100864.28;5046221;28;51143;-49
2022/05/19 04:15:47;;;;;;;;;10.00;4.00;;;;;30.33;100.00;100857.16;5044532;28;51182;-50
2022/05/19 04:18:32;;;;;;;;;1.75;1.75;;;;;30.33;100.00;100880.03;5047079;28;51103;-50
2022/05/19 04:21:16;;;;;;;;;7.75;5.50;;;;;30.31;100.00;100884.75;5041252;28;51618;-49
2022/05/19 04:24:01;;;;;;;;;7.50;5.25;;;;;30.28;100.00;100880.41;5043038;28;51142;-49
2022/05/19 04:26:46;;;;;;;;;6.50;5.00;;;;;30.27;100.00;100883.28;5042372;28;51228;-51
2022/05/19 04:29:30;;;;;;;;;6.25;3.75;;;;;30.28;100.00;100891.41;5042834;28;51198;-49
2022/05/19 04:32:16;;;;;;;;;7.50;4.25;;;;;30.28;100.00;100887.75;5042416;28;51044;-48
2022/05/19 04:35:01;;;;;;;;;9.50;4.25;;;;;30.29;100.00;100892.25;5043476;28;51103;-48
2022/05/19 04:37:46;;;;;;;;;8.25;4.75;;;;;30.27;100.00;100903.38;5043111;28;51420;-49
2022/05/19 04:40:31;;;;;;;;;10.75;5.75;;;;;30.25;100.00;100910.84;5041339;28;51158;-49
2022/05/19 04:43:22;;;;;;;;;6.75;3.00;;;;;30.25;100.00;100921.84;5044031;28;51139;-49
2022/05/19 04:46:07;;;;;;;;;10.00;4.50;;;;;30.23;100.00;100940.28;5042425;28;51324;-50
2022/05/19 04:48:51;;;;;;;;;4.75;2.00;;;;;30.11;100.00;100931.22;5043173;28;51238;-49
2022/05/19 04:51:36;;;;;;;;;2.50;2.50;;;;;30.13;100.00;100937.47;5043795;28;51324;-48
2022/05/19 04:54:20;;;;;;;;;5.00;4.00;;;;;30.11;100.00;100947.69;5043681;28;51050;-50
2022/05/19 04:57:05;;;;;;;;;6.75;4.00;;;;;30.10;100.00;100939.59;5040356;28;51542;-50
2022/05/19 04:59:50;;;;;;;;;8.75;4.50;;;;;30.05;100.00;100941.84;5042444;28;51083;-50
2022/05/19 05:02:35;;;;;;;;;7.25;4.75;;;;;30.06;100.00;100951.81;5044526;28;51149;-49
2022/05/19 05:05:20;;;;;;;;;9.25;4.50;;;;;30.05;100.00;100959.19;5039858;28;51042;-48
2022/05/19 05:08:05;;;;;;;;;6.75;5.75;;;;;29.98;100.00;100967.06;5042643;28;51235;-49
2022/05/19 05:10:50;;;;;;;;;6.00;5.75;;;;;29.99;100.00;100992.59;5042045;28;51159;-50
2022/05/19 05:13:34;;;;;;;;;10.50;5.50;;;;;29.74;100.00;101002.78;5046140;28;51359;-48
2022/05/19 05:16:19;;;;;;;;;7.75;5.00;;;;;29.51;100.00;101002.81;5038079;28;51389;-50
2022/05/19 05:19:04;;;;;;;;;8.75;5.00;;;;;29.25;100.00;100995.72;5040134;28;51042;-49
2022/05/19 05:21:52;;;;;;;;;7.25;0.75;;;;;29.05;100.00;100973.53;5039309;28;51167;-50
2022/05/19 05:24:36;;;;;;;;;4.25;1.25;;;;;28.87;100.00;100979.44;5044397;28;51246;-51
2022/05/19 05:27:21;;;;;;;;;4.25;4.25;;;;;28.66;100.00;100987.41;5041339;28;51388;-49
2022/05/19 05:30:06;;;;;;;;;15.25;9.25;;;;;28.37;100.00;100978.66;5041476;28;51109;-50
2022/05/19 05:32:51;;;;;;;;;12.75;6.75;;;;;28.22;100.00;100980.69;5041600;28;51620;-50
2022/05/19 05:35:36;;;;;;;;;6.50;5.25;;;;;28.11;100.00;100955.00;5042940;28;51108;-49
2022/05/19 05:38:20;;;;;;;;;9.50;6.00;;;;;28.12;100.00;100967.69;5040674;28;51061;-52
2022/05/19 05:41:05;;;;;;;;;9.50;5.75;;;;;28.10;100.00;100946.94;5041976;28;51239;-50
2022/05/19 05:43:50;;;;;;;;;14.25;7.50;;;;;28.07;100.00;100958.06;5043074;28;51180;-50
2022/05/19 05:46:35;;;;;;;;;9.50;6.25;;;;;28.05;100.00;100943.59;5042669;28;51520;-49
2022/05/19 05:49:20;;;;;;;;;14.25;10.50;;;;;28.01;100.00;100937.50;5037887;28;51210;-50
2022/05/19 05:52:06;;;;;;;;;12.50;6.75;;;;;28.03;100.00;100932.78;5040084;28;51554;-52
2022/05/19 05:54:50;;;;;;;;;13.75;9.75;;;;;28.05;100.00;100928.09;5039875;28;51086;-50
2022/05/19 05:57:34;;;;;;;;;13.00;9.00;;;;;28.07;100.00;100926.13;5040315;28;51133;-47
2022/05/19 06:00:19;;;;;;;;;12.00;9.00;;;;;28.04;100.00;100922.75;5040449;28;51569;-51
2022/05/19 06:03:04;;;;;;;;;10.00;6.00;;;;;28.04;100.00;100928.22;5044760;28;51098;-51
2022/05/19 06:05:49;;;;;;;;;12.00;6.50;;;;;28.08;100.00;100940.69;5040424;28;51177;-53
2022/05/19 06:08:34;;;;;;;;;8.25;8.25;;;;;28.12;100.00;100936.75;5047391;28;51091;-48
2022/05/19 06:11:19;;;;;;;;;11.75;7.50;;;;;28.11;100.00;100944.06;5041774;28;51184;-49
2022/05/19 06:14:04;;;;;;;;;10.50;3.50;;;;;28.13;100.00;100944.84;5041861;28;51406;-48
2022/05/19 06:16:48;;;;;;;;;11.00;7.25;;;;;28.19;100.00;100950.84;5038047;28;51114;-49
2022/05/19 06:19:33;;;;;;;;;11.75;9.00;;;;;28.19;100.00;100970.84;5041355;28;51067;-51
2022/05/19 06:22:18;;;;;;;;;9.50;6.00;;;;;28.27;100.00;100973.03;5040474;28;51170;-52
2022/05/19 06:25:03;;;;;;;;;8.75;5.25;;;;;28.38;100.00;100988.63;5042872;28;51516;-51
2022/05/19 06:27:49;;;;;;;;;12.50;9.75;;;;;28.43;100.00;101000.09;5038195;28;51197;-49
2022/05/19 06:30:33;;;;;;;;;12.50;11.00;;;;;28.51;100.00;101011.34;5041243;28;51133;-47
2022/05/19 06:33:20;;;;;;;;;19.50;12.75;;;;;28.56;100.00;101009.16;5039392;28;51019;-51
2022/05/19 06:36:05;;;;;;;;;8.50;7.00;;;;;28.63;100.00;101017.75;5044758;28;51548;-52
2022/05/19 06:38:50;;;;;;;;;15.00;10.50;;;;;28.59;100.00;101010.78;5041972;28;51127;-54
2022/05/19 06:44:40;;;;;;;;;15.75;8.50;;;;;28.78;100.00;101023.97;5039514;28;51147;-54
2022/05/19 06:47:25;;;;;;;;;11.00;8.00;;;;;28.81;100.00;101036.56;5040135;28;51162;-54
2022/05/19 06:50:10;;;;;;;;;15.75;8.00;;;;;28.85;100.00;101029.84;5043639;28;51430;-53
2022/05/19 06:53:01;;;;;;;;;12.50;8.00;;;;;29.04;100.00;101048.47;5036523;28;51077;-52
2022/05/19 06:55:46;;;;;;;;;13.75;7.25;;;;;29.14;100.00;101057.72;5039760;28;51205;-53
2022/05/19 06:58:30;;;;;;;;;9.50;6.75;;;;;29.27;100.00;101065.00;5040070;28;51139;-53
2022/05/19 07:01:15;;;;;;;;;8.75;5.25;;;;;29.43;100.00;101070.19;5039400;28;51143;-54
2022/05/19 07:04:00;;;;;;;;;10.00;8.25;;;;;29.53;100.00;101066.59;5039890;28;51255;-54
2022/05/19 07:06:45;;;;;;;;;7.00;5.50;;;;;29.73;100.00;101071.50;5039446;28;51415;-53
2022/05/19 07:09:29;;;;;;;;;16.00;7.50;;;;;29.89;100.00;101076.63;5039420;28;52148;-55
2022/05/19 07:12:21;;;;;;;;;12.25;8.75;;;;;30.11;100.00;101094.97;5039401;28;51205;-54
2022/05/19 07:15:07;;;;;;;;;11.00;6.00;;;;;30.22;100.00;101103.22;5039353;28;52240;-54
2022/05/19 07:17:51;;;;;;;;;12.00;8.00;;;;;30.23;100.00;101115.94;5039561;28;51171;-53
2022/05/19 07:20:47;;;;;;;;;13.25;9.00;;;;;30.37;100.00;101134.03;5037626;28;51269;-52
2022/05/19 07:23:32;;;;;;;;;14.00;6.00;;;;;30.42;100.00;101126.31;5038621;28;51261;-53
2022/05/19 07:26:17;;;;;;;;;10.00;4.25;;;;;30.49;100.00;101132.16;5038985;28;51246;-54
2022/05/19 07:29:03;;;;;;;;;7.25;4.75;;;;;30.56;100.00;101136.19;5039282;28;51269;-54
2022/05/19 07:31:49;;;;;;;;;14.25;7.00;;;;;30.60;100.00;101142.28;5040351;28;51039;-53
2022/05/19 07:34:36;;;;;;;;;13.50;6.75;;;;;30.59;100.00;101135.94;5038045;28;51045;-52
2022/05/19 07:37:20;;;;;;;;;17.25;7.00;;;;;30.74;100.00;101142.03;5039378;28;51173;-53
2022/05/19 07:40:07;;;;;;;;;7.00;5.00;;;;;30.87;100.00;101146.50;5039185;28;51460;-55
2022/05/19 07:42:52;;;;;;;;;5.75;5.50;;;;;31.13;100.00;101136.09;5039317;28;51234;-55
2022/05/19 07:45:36;;;;;;;;;6.50;5.75;;;;;31.35;100.00;101132.34;5039070;28;51258;-54
2022/05/19 07:48:21;;;;;;;;;6.25;5.00;;;;;31.44;100.00;101135.31;5039516;28;51185;-52
2022/05/19 07:51:05;;;;;;;;;10.75;8.25;;;;;31.37;100.00;101130.34;5038128;28;51525;-53
2022/05/19 07:53:51;;;;;;;;;11.00;6.75;;;;;31.30;100.00;101136.50;5037918;28;51190;-53
2022/05/19 07:56:35;;;;;;;;;10.75;7.75;;;;;31.19;100.00;101138.31;5033228;28;51616;-54
2022/05/19 07:59:20;;;;;;;;;9.00;8.00;;;;;31.11;100.00;101135.34;5038672;28;51111;-54
2022/05/19 08:02:05;;;;;;;;;9.75;6.00;;;;;31.06;100.00;101123.81;5038916;28;51012;-53
2022/05/19 08:04:49;;;;;;;;;9.75;6.25;;;;;31.04;100.00;101136.84;5038277;28;51682;-54
2022/05/19 08:07:34;;;;;;;;;15.50;9.25;;;;;31.02;100.00;101125.97;5039039;28;51159;-55
2022/05/19 08:10:24;;;;;;;;;11.50;8.25;;;;;31.05;100.00;101138.59;5037709;28;51333;-53
2022/05/19 08:16:11;;;;;;;;;17.25;6.25;;;;;31.05;100.00;101133.09;5037347;28;51157;-53
2022/05/19 08:18:56;;;;;;;;;11.00;7.50;;;;;31.04;100.00;101125.84;5038134;28;51158;-54
2022/05/19 08:21:40;;;;;;;;;12.75;7.00;;;;;31.05;100.00;101136.69;5031041;28;51164;-51
2022/05/19 08:24:25;;;;;;;;;16.25;8.50;;;;;31.09;100.00;101139.19;5040136;28;51242;-54
2022/05/19 08:27:10;;;;;;;;;19.25;14.25;;;;;31.04;100.00;101147.84;5042311;28;51020;-54
2022/05/19 08:29:54;;;;;;;;;16.00;12.50;;;;;31.01;100.00;101148.94;5041596;28;51395;-54
2022/05/19 08:32:39;;;;;;;;;13.00;9.00;;;;;31.05;100.00;101150.44;5040917;28;51461;-54
2022/05/19 08:35:25;;;;;;;;;10.50;6.00;;;;;31.11;100.00;101161.94;5043242;28;51132;-55
2022/05/19 08:38:09;;;;;;;;;8.75;7.00;;;;;31.20;100.00;101163.94;5035187;28;51224;-53
2022/05/19 08:41:14;;;;;;;;;11.25;7.75;;;;;31.26;100.00;101166.16;5041146;28;51433;-54
2022/05/19 08:44:08;;;;;;;;;15.50;10.25;;;;;31.24;100.00;101165.41;5038957;28;51194;-55
2022/05/19 08:46:54;;;;;;;;;20.75;10.25;;;;;31.19;100.00;101167.69;5041354;28;51459;-51
2022/05/19 08:49:42;;;;;;;;;7.75;6.50;;;;;31.23;100.00;101171.91;5042003;28;51422;-53
2022/05/19 08:52:37;;;;;;;;;10.00;8.00;;;;;31.16;100.00;101162.44;5038460;28;51242;-52
2022/05/19 08:55:22;;;;;;;;;11.50;6.50;;;;;31.36;100.00;101191.84;5040112;28;51119;-54
2022/05/19 08:58:22;;;;;;;;;12.50;8.25;;;;;31.46;100.00;101202.06;5040510;28;51184;-53
2022/05/19 09:01:21;;;;;;;;;9.25;6.50;;;;;31.59;100.00;101200.00;5040907;28;51379;-55
2022/05/19 09:04:35;;;;;;;;;12.25;8.75;;;;;31.66;100.00;101201.22;5038483;28;51250;-54
2022/05/19 09:07:57;;;;;;;;;17.75;9.50;;;;;31.84;100.00;101192.44;5039248;28;51185;-53
2022/05/19 09:10:54;;;;;;;;;9.25;8.00;;;;;31.93;100.00;101194.38;5035772;28;51306;-53
2022/05/19 09:13:52;;;;;;;;;13.00;9.25;;;;;31.96;100.00;101193.22;5039421;28;51261;-54
2022/05/19 09:16:42;;;;;;;;;9.75;5.75;;;;;31.98;100.00;101185.72;5038496;28;51156;-53
2022/05/19 09:19:43;;;;;;;;;11.75;6.00;;;;;32.05;100.00;101177.78;5041090;28;51111;-53
2022/05/19 09:22:33;;;;;;;;;10.75;8.25;;;;;32.28;100.00;101181.28;5034696;28;51277;-54
2022/05/19 09:25:21;;;;;;;;;8.25;7.25;;;;;32.44;100.00;101186.28;5041018;28;51415;-54
2022/05/19 09:28:06;;;;;;;;;13.50;8.00;;;;;32.50;100.00;101193.97;5038850;28;51128;-51
2022/05/19 09:30:55;;;;;;;;;13.75;8.00;;;;;32.47;100.00;101197.03;5039428;28;51286;-52
2022/05/19 09:33:47;;;;;;;;;9.25;5.75;;;;;32.49;100.00;101207.88;5040109;28;51538;-54
2022/05/19 09:36:38;;;;;;;;;8.75;6.00;;;;;32.48;100.00;101193.25;5038050;28;51107;-54
2022/05/19 09:39:23;;;;;;;;;9.00;5.00;;;;;32.60;100.00;101199.53;5045578;28;51448;-55
2022/05/19 09:42:13;;;;;;;;;2.00;0.50;;;;;32.70;100.00;101196.81;5042735;28;51330;-51
2022/05/19 09:44:58;;;;;;;;;7.50;5.00;;;;;32.78;100.00;101191.47;5041446;28;51178;-54
2022/05/19 09:47:46;;;;;;;;;14.25;5.25;;;;;32.84;100.00;101190.94;5037631;28;51567;-52
2022/05/19 09:50:36;;;;;;;;;8.50;5.25;;;;;32.95;100.00;101198.25;5040417;28;51162;-51
2022/05/19 09:53:26;;;;;;;;;10.75;4.00;;;;;33.08;100.00;101197.97;5042257;28;51101;-55
2022/05/19 09:56:14;;;;;;;;;8.50;4.00;;;;;33.15;100.00;101196.38;5039317;28;51020;-53
2022/05/19 09:59:13;;;;;;;;;4.50;3.50;;;;;33.40;100.00;101201.50;5038703;28;51155;-55
2022/05/19 10:02:16;;;;;;;;;4.75;3.25;;;;;33.52;100.00;101198.50;5046571;28;51147;-54
2022/05/19 10:05:02;;;;;;;;;5.75;3.00;;;;;33.47;100.00;101197.19;5039565;28;51408;-51
2022/05/19 10:07:49;;;;;;;;;6.00;3.00;;;;;33.32;100.00;101193.94;5037241;28;51415;-54
2022/05/19 10:10:45;;;;;;;;;5.75;4.25;;;;;33.19;100.00;101163.88;5040255;28;51169;-55
2022/05/19 10:13:48;;;;;;;;;9.75;4.00;;;;;33.26;100.00;101189.88;5039229;28;51704;-54
2022/05/19 10:17:01;;;;;;;;;5.00;5.00;;;;;33.09;100.00;101185.94;5038503;28;51439;-54
2022/05/19 10:20:21;;;;;;;;;6.00;1.25;;;;;32.98;100.00;101191.56;5038007;28;51184;-55
2022/05/19 10:23:40;;;;;;;;;6.00;3.50;;;;;33.08;100.00;101178.66;5033356;28;51015;-55
2022/05/19 10:26:37;;;;;;;;;6.50;4.75;;;;;33.28;100.00;101184.22;5041300;28;51434;-54
2022/05/19 10:33:15;;;;;;;;;9.00;4.25;;;;;33.69;100.00;101182.19;5038874;28;51437;-53
2022/05/19 10:36:31;;;;;;;;;7.25;4.00;;;;;33.86;100.00;101180.59;5014887;28;51068;-54
2022/05/19 10:39:38;;;;;;;;;9.25;4.75;;;;;33.98;100.00;101195.13;5014759;28;51081;-55
2022/05/19 10:42:28;;;;;;;;;12.25;7.75;;;;;34.05;100.00;101190.75;5049790;27;51284;-54
2022/05/19 10:45:33;;;;;;;;;9.75;5.75;;;;;33.99;100.00;101199.63;5036663;28;51273;-55
2022/05/19 10:48:34;;;;;;;;;8.75;5.25;;;;;33.94;100.00;101190.94;5038546;28;51165;-55
2022/05/19 10:51:32;;;;;;;;;12.50;7.75;;;;;33.89;100.00;101194.13;5038803;28;51088;-53
2022/05/19 10:54:35;;;;;;;;;10.00;5.50;;;;;33.92;100.00;101202.09;5038565;28;51363;-54
2022/05/19 10:57:34;;;;;;;;;13.00;7.00;;;;;33.95;100.00;101198.19;5034218;28;51102;-52
2022/05/19 11:00:31;;;;;;;;;18.00;6.50;;;;;34.01;100.00;101197.59;5038538;28;51082;-51
2022/05/19 11:03:36;;;;;;;;;13.75;7.25;;;;;34.07;100.00;101196.13;5036712;28;51120;-52
2022/05/19 11:06:39;;;;;;;;;10.00;7.25;;;;;33.97;100.00;101191.50;5036456;28;51166;-54
2022/05/19 11:09:33;;;;;;;;;9.25;7.00;;;;;33.95;100.00;101195.44;5036714;28;51191;-54
2022/05/19 11:12:49;;;;;;;;;12.00;8.75;;;;;33.89;100.00;101196.91;5031218;28;51287;-54
2022/05/19 11:15:44;;;;;;;;;8.00;7.25;;;;;33.86;100.00;101193.53;5037988;28;51270;-53
2022/05/19 11:18:30;;;;;;;;;8.00;6.25;;;;;33.87;100.00;101192.50;5038251;28;50999;-53
2022/05/19 11:21:50;;;;;;;;;14.50;9.25;;;;;33.82;100.00;101187.41;5033217;28;51475;-51
2022/05/19 11:27:53;;;;;;;;;10.75;8.75;;;;;33.86;100.00;101175.06;5038156;28;51068;-55
2022/05/19 11:30:42;;;;;;;;;13.50;7.75;;;;;34.07;100.00;101179.56;5037821;28;51180;-51
2022/05/19 11:33:31;;;;;;;;;11.50;8.75;;;;;34.29;100.00;101181.97;5039120;28;51384;-52
2022/05/19 11:36:47;;;;;;;;;17.75;8.75;;;;;34.28;100.00;101176.59;5037391;28;51630;-53
2022/05/19 11:39:43;;;;;;;;;12.75;8.00;;;;;34.27;100.00;101177.63;5036886;28;51319;-50
2022/05/19 11:42:45;;;;;;;;;17.50;10.75;;;;;34.26;100.00;101162.91;5038294;28;51173;-54
2022/05/19 11:45:44;;;;;;;;;13.50;9.00;;;;;34.18;100.00;101175.75;5037746;28;51214;-55
2022/05/19 11:57:55;;;;;;;;;18.25;10.00;;;;;34.11;100.00;101173.59;5039127;28;51277;-55
2022/05/19 12:01:04;;;;;;;;;12.75;11.00;;;;;34.16;100.00;101169.50;5040074;28;51187;-54
2022/05/19 12:04:17;;;;;;;;;17.50;11.00;;;;;34.21;100.00;101165.28;5039877;28;51099;-53
2022/05/19 12:07:11;;;;;;;;;16.50;11.50;;;;;34.22;100.00;101169.78;5037600;28;51400;-53
2022/05/19 12:09:59;;;;;;;;;18.75;9.75;;;;;34.11;100.00;101172.72;5041384;28;51143;-55
2022/05/19 12:12:46;;;;;;;;;21.75;10.50;;;;;34.13;100.00;101163.25;5042293;28;51249;-53
2022/05/19 12:15:33;;;;;;;;;15.75;8.00;;;;;34.23;100.00;101168.78;5041549;28;51152;-55
2022/05/19 12:18:24;;;;;;;;;22.50;9.00;;;;;34.32;100.00;101160.59;5042632;28;51154;-54
2022/05/19 12:21:09;;;;;;;;;18.00;10.75;;;;;34.28;100.00;101163.66;5042725;28;51223;-51
2022/05/19 12:23:57;;;;;;;;;15.00;10.25;;;;;34.44;100.00;101162.19;5044856;28;51141;-52
2022/05/19 12:26:52;;;;;;;;;15.25;9.50;;;;;34.45;100.00;101161.13;5041485;28;51182;-51
2022/05/19 12:31:56;;;;;;;;;17.50;9.50;;;;;34.41;100.00;101155.03;5042144;28;51080;-52
2022/05/19 12:33:30;;;;;;;;;23.00;10.00;;;;;34.39;100.00;101150.66;5042336;28;51108;-54
2022/05/19 12:36:41;;;;;;;;;20.50;10.50;;;;;34.40;100.00;101146.91;5043091;28;51098;-58
2022/05/19 12:39:26;;;;;;;;;17.25;9.25;;;;;34.44;100.00;101138.19;5042480;28;51186;-55
2022/05/19 12:42:34;;;;;;;;;20.25;9.75;;;;;34.44;100.00;101138.19;5041496;28;51554;-51
2022/05/19 12:45:27;;;;;;;;;13.25;12.00;;;;;34.43;100.00;101150.25;5040433;28;51122;-52
2022/05/19 12:48:11;;;;;;;;;18.25;10.50;;;;;34.51;100.00;101141.19;5041720;28;51047;-51
2022/05/19 12:51:08;;;;;;;;;14.75;11.00;;;;;34.60;100.00;101140.28;5043942;28;51127;-55
2022/05/19 12:53:52;;;;;;;;;17.75;9.25;;;;;34.57;100.00;101132.28;5042711;28;51163;-52
2022/05/19 12:56:40;;;;;;;;;14.25;9.75;;;;;34.51;100.00;101127.38;5041692;28;51201;-52
2022/05/19 12:59:27;;;;;;;;;21.50;11.00;;;;;34.33;100.00;101119.00;5040648;28;51099;-54
2022/05/19 13:02:35;;;;;;;;;25.75;12.75;;;;;34.21;100.00;101098.13;5041182;28;51083;-51
2022/05/19 13:05:24;;;;;;;;;14.00;11.50;;;;;34.21;100.00;101099.00;5035835;28;51343;-51
2022/05/19 13:08:14;;;;;;;;;14.75;9.25;;;;;34.21;100.00;101101.78;5041168;28;51270;-54
2022/05/19 13:11:03;;;;;;;;;16.75;9.25;;;;;34.18;100.00;101084.63;5033407;28;51470;-52
2022/05/19 13:14:10;;;;;;;;;20.25;10.75;;;;;34.12;100.00;101081.44;5033183;28;51426;-54
2022/05/19 13:16:55;;;;;;;;;10.75;8.50;;;;;34.07;100.00;101077.41;5040062;28;51218;-51
2022/05/19 13:19:41;;;;;;;;;17.50;10.00;;;;;34.05;100.00;101071.16;5039479;28;51281;-54